Ivesdale, IL (61851)

1:53 AM CST on February 11, 2016 (GMT -0600)
Jones Family | | Change Station
CLOSE
Current Station
Personal Weather Station
Location: Monticello, IL
Elevation: 745 ft
Nearby Weather Stations

Elev 745 ft 40.00 °N, 88.58 °W | Updated 56 seconds ago

Overcast
Overcast
15.8 °F
Feels Like 4 °F
N
9.2
Wind Variable Wind from North
Gusts 10.7 mph

Today
High -- | Low -- °F
--% Chance of Precip.
Yesterday
High -- | Low -- °F
Precip. -- in
Pressure 30.20 in
Visibility 10.0 miles
Clouds Overcast 10000 ft
Windchill 4 °F
Dew Point 1 °F
Humidity 52%
Rainfall 0.00 in
Snow Depth Not available.
6:52 AM 5:24 PM
Waxing Crescent, 10% visible
METAR KCMI 110653Z AUTO 34004KT 10SM OVC100 M11/M14 A3016 RMK AO2 SLP227 T11061144
Pressure 30.20 in
Visibility 10.0 miles
Clouds Overcast 10000 ft
Windchill 4 °F
Dew Point 1 °F
Humidity 52%
Rainfall 0.00 in
Snow Depth Not available.
6:52 AM 5:24 PM
Waxing Crescent, 10% visible
METAR KCMI 110653Z AUTO 34004KT 10SM OVC100 M11/M14 A3016 RMK AO2 SLP227 T11061144

10-Day Weather Forecast

Almanac

Astronomy

Feb. 11, 2016 Rise Set
Actual Time
Civil Twilight
Nautical Twilight
Astronomical Twilight
Moon
Length of Visible Light
Length of Day
Tomorrow will be .
, % of the Moon is Illuminated

Today's Extremes

State Highs State Lows

Community

WunderPhotos

Upload Photos

1,892,030 photos uploaded!

WunderBlog® & News

Nearby

Air Quality

  Air Quality AQ Index Pollutant
Not available.

Snow Depth

Station Depth Elevation

Earthquake Activity

City Distance Mag. Time & Date
Minimum magnitude displayed is 2.5.

Coastal Water Temperatures

Place Temperature

Stations

Nearby Weather Stations

Station Location Temp. Windchill Dew Point Humidity Wind Precip. Elev Updated Type
                   

Watches & Warnings

There are currently no watches in effect.